Time,TemperatureF,DewpointF,PressureIn,WindDirection,WindDirectionDegrees,WindSpeedMPH,WindSpeedGustMPH,Humidity,HourlyPrecipIn,Conditions,Clouds,dailyrainin,SoftwareType,DateUTC
2013-08-29 00:13:00,80.2,69.0,29.95,WNW,283,3.0,4.0,68,0.00,,,0.00,weatherlink.com 1.10,2013-08-29 05:13:00,
2013-08-29 00:28:00,79.7,69.0,29.95,West,276,1.0,4.0,69,0.00,,,0.00,weatherlink.com 1.10,2013-08-29 05:28:00,
2013-08-29 00:43:00,78.9,69.0,29.95,West,270,3.0,3.0,71,0.00,,,0.00,weatherlink.com 1.10,2013-08-29 05:43:00,
2013-08-29 00:58:00,78.9,68.0,29.96,NW,307,2.0,5.0,69,0.00,,,0.00,weatherlink.com 1.10,2013-08-29 05:58:00,
2013-08-29 01:13:00,78.3,68.0,29.96,West,278,2.0,4.0,71,0.00,,,0.00,weatherlink.com 1.10,2013-08-29 06:13:00,
2013-08-29 01:28:00,78.6,67.0,29.95,WNW,302,2.0,7.0,68,0.00,,,0.00,weatherlink.com 1.10,2013-08-29 06:28:00,
2013-08-29 01:43:00,79.1,67.0,29.95,WNW,297,2.0,5.0,66,0.00,,,0.00,weatherlink.com 1.10,2013-08-29 06:43:00,
2013-08-29 01:58:00,79.2,67.0,29.95,West,274,2.0,7.0,66,0.00,,,0.00,weatherlink.com 1.10,2013-08-29 06:58:00,
2013-08-29 02:13:00,77.9,67.0,29.95,West,281,2.0,4.0,70,0.00,,,0.00,weatherlink.com 1.10,2013-08-29 07:13:00,
2013-08-29 02:28:00,77.5,67.0,29.95,WNW,298,3.0,5.0,71,0.00,,,0.00,weatherlink.com 1.10,2013-08-29 07:28:00,
2013-08-29 02:43:00,77.0,68.0,29.95,West,281,2.0,4.0,73,0.00,,,0.00,weatherlink.com 1.10,2013-08-29 07:43:00,
2013-08-29 02:58:00,75.5,68.0,29.96,West,281,3.0,4.0,77,0.00,,,0.00,weatherlink.com 1.10,2013-08-29 07:58:00,
2013-08-29 03:13:00,76.3,67.0,29.95,West,273,3.0,8.0,73,0.00,,,0.00,weatherlink.com 1.10,2013-08-29 08:13:00,
2013-08-29 03:28:00,76.8,67.0,29.96,West,278,3.0,7.0,71,0.00,,,0.00,weatherlink.com 1.10,2013-08-29 08:28:00,
2013-08-29 03:43:00,76.7,67.0,29.95,WNW,300,5.0,6.0,71,0.00,,,0.00,weatherlink.com 1.10,2013-08-29 08:43:00,
2013-08-29 03:58:00,76.5,66.0,29.95,WNW,290,3.0,6.0,71,0.00,,,0.00,weatherlink.com 1.10,2013-08-29 08:58:00,
2013-08-29 04:13:00,75.7,66.0,29.95,West,277,2.0,4.0,73,0.00,,,0.00,weatherlink.com 1.10,2013-08-29 09:13:00,
2013-08-29 04:28:00,75.1,66.0,29.95,WNW,283,1.0,4.0,74,0.00,,,0.00,weatherlink.com 1.10,2013-08-29 09:28:00,
2013-08-29 04:43:00,75.2,66.0,29.95,WSW,257,2.0,4.0,74,0.00,,,0.00,weatherlink.com 1.10,2013-08-29 09:43:00,
2013-08-29 04:58:00,75.8,66.0,29.95,WNW,302,2.0,5.0,72,0.00,,,0.00,weatherlink.com 1.10,2013-08-29 09:58:00,
2013-08-29 05:13:00,76.3,66.0,29.96,WNW,294,2.0,5.0,70,0.00,,,0.00,weatherlink.com 1.10,2013-08-29 10:13:00,
2013-08-29 05:28:00,76.6,66.0,29.96,NW,311,4.0,6.0,70,0.00,,,0.00,weatherlink.com 1.10,2013-08-29 10:28:00,
2013-08-29 05:43:00,76.2,66.0,29.96,WNW,298,1.0,5.0,71,0.00,,,0.00,weatherlink.com 1.10,2013-08-29 10:43:00,
2013-08-29 05:58:00,75.3,66.0,29.97,WNW,283,1.0,2.0,73,0.00,,,0.00,weatherlink.com 1.10,2013-08-29 10:58:00,
2013-08-29 06:13:00,74.5,66.0,29.97,West,277,1.0,2.0,74,0.00,,,0.00,weatherlink.com 1.10,2013-08-29 11:13:00,
2013-08-29 06:29:00,74.4,66.0,29.98,WNW,295,0.0,2.0,75,0.00,,,0.00,weatherlink.com 1.10,2013-08-29 11:29:00,
2013-08-29 06:44:00,74.5,66.0,29.98,West,274,1.0,2.0,75,0.00,,,0.00,weatherlink.com 1.10,2013-08-29 11:44:00,
2013-08-29 06:59:00,73.7,66.0,29.98,West,277,1.0,3.0,78,0.00,,,0.00,weatherlink.com 1.10,2013-08-29 11:59:00,
2013-08-29 07:14:00,73.7,68.0,29.99,WNW,289,1.0,3.0,81,0.00,,,0.00,weatherlink.com 1.10,2013-08-29 12:14:00,
2013-08-29 07:29:00,74.1,68.0,29.99,West,269,1.0,3.0,82,0.00,,,0.00,weatherlink.com 1.10,2013-08-29 12:29:00,
2013-08-29 07:44:00,74.3,69.0,29.99,West,260,1.0,3.0,83,0.00,,,0.00,weatherlink.com 1.10,2013-08-29 12:44:00,
2013-08-29 07:59:00,74.8,69.0,29.98,West,269,2.0,4.0,82,0.00,,,0.00,weatherlink.com 1.10,2013-08-29 12:59:00,
2013-08-29 08:14:00,75.6,69.0,29.99,West,270,2.0,4.0,81,0.00,,,0.00,weatherlink.com 1.10,2013-08-29 13:14:00,
2013-08-29 08:29:00,76.7,70.0,29.99,West,271,2.0,5.0,80,0.00,,,0.00,weatherlink.com 1.10,2013-08-29 13:29:00,
2013-08-29 08:44:00,77.8,71.0,29.98,West,270,3.0,5.0,79,0.00,,,0.00,weatherlink.com 1.10,2013-08-29 13:44:00,
2013-08-29 08:59:00,78.9,71.0,29.99,WNW,284,3.0,6.0,77,0.00,,,0.00,weatherlink.com 1.10,2013-08-29 13:59:00,
2013-08-29 09:14:00,79.6,71.0,29.99,West,266,7.0,7.0,76,0.00,,,0.00,weatherlink.com 1.10,2013-08-29 14:14:00,
2013-08-29 09:29:00,80.5,72.0,29.99,WNW,290,4.0,8.0,76,0.00,,,0.00,weatherlink.com 1.10,2013-08-29 14:29:00,
2013-08-29 09:44:00,80.9,72.0,29.99,WNW,293,4.0,8.0,75,0.00,,,0.00,weatherlink.com 1.10,2013-08-29 14:44:00,
2013-08-29 09:59:00,81.8,72.0,30.00,NW,309,4.0,9.0,72,0.00,,,0.00,weatherlink.com 1.10,2013-08-29 14:59:00,
2013-08-29 10:14:00,83.1,73.0,30.00,West,280,2.0,6.0,72,0.00,,,0.00,weatherlink.com 1.10,2013-08-29 15:14:00,
2013-08-29 10:29:00,82.8,73.0,30.00,NW,316,2.0,6.0,73,0.00,,,0.00,weatherlink.com 1.10,2013-08-29 15:29:00,
2013-08-29 10:44:00,83.1,73.0,30.00,WSW,256,2.0,5.0,72,0.00,,,0.00,weatherlink.com 1.10,2013-08-29 15:44:00,
2013-08-29 10:59:00,84.6,74.0,30.00,NNE,30,2.0,5.0,70,0.00,,,0.00,weatherlink.com 1.10,2013-08-29 15:59:00,
2013-08-29 11:14:00,85.7,74.0,30.00,NNW,346,6.0,8.0,68,0.00,,,0.00,weatherlink.com 1.10,2013-08-29 16:14:00,
2013-08-29 11:29:00,86.3,73.0,29.99,WNW,284,3.0,7.0,64,0.00,,,0.00,weatherlink.com 1.10,2013-08-29 16:29:00,
2013-08-29 11:44:00,87.4,75.0,29.99,WNW,300,6.0,9.0,67,0.00,,,0.00,weatherlink.com 1.10,2013-08-29 16:44:00,
2013-08-29 11:59:00,87.5,73.0,29.99,WNW,298,2.0,11.0,62,0.00,,,0.00,weatherlink.com 1.10,2013-08-29 16:59:00,
2013-08-29 12:14:00,87.9,73.0,29.99,WNW,297,3.0,9.0,62,0.00,,,0.00,weatherlink.com 1.10,2013-08-29 17:14:00,
2013-08-29 12:29:00,88.7,72.0,29.98,NW,318,3.0,9.0,58,0.00,,,0.00,weatherlink.com 1.10,2013-08-29 17:29:00,
2013-08-29 12:44:00,89.2,73.0,29.98,West,278,5.0,8.0,59,0.00,,,0.00,weatherlink.com 1.10,2013-08-29 17:44:00,
2013-08-29 12:59:00,89.5,74.0,29.97,WNW,300,2.0,7.0,60,0.00,,,0.00,weatherlink.com 1.10,2013-08-29 17:59:00,
2013-08-29 13:14:00,90.2,73.0,29.97,West,280,2.0,6.0,58,0.00,,,0.00,weatherlink.com 1.10,2013-08-29 18:14:00,
2013-08-29 13:29:00,90.7,73.0,29.96,NE,38,2.0,5.0,57,0.00,,,0.00,weatherlink.com 1.10,2013-08-29 18:29:00,
2013-08-29 13:45:00,91.8,75.0,29.96,ENE,75,1.0,5.0,59,0.00,,,0.00,weatherlink.com 1.10,2013-08-29 18:45:00,
2013-08-29 14:00:00,92.1,74.0,29.96,WNW,299,2.0,5.0,55,0.00,,,0.00,weatherlink.com 1.10,2013-08-29 19:00:00,
2013-08-29 14:15:00,92.3,72.0,29.95,West,281,3.0,6.0,51,0.00,,,0.00,weatherlink.com 1.10,2013-08-29 19:15:00,
2013-08-29 14:30:00,92.4,72.0,29.95,NW,321,2.0,5.0,51,0.00,,,0.00,weatherlink.com 1.10,2013-08-29 19:30:00,
2013-08-29 14:45:00,92.8,73.0,29.94,West,276,3.0,6.0,52,0.00,,,0.00,weatherlink.com 1.10,2013-08-29 19:45:00,
2013-08-29 15:02:00,93.5,72.0,29.94,NW,316,1.0,5.0,49,0.00,,,0.00,weatherlink.com 1.10,2013-08-29 20:02:00,
2013-08-29 15:15:00,94.9,74.0,29.93,NE,40,4.0,4.0,51,0.00,,,0.00,weatherlink.com 1.10,2013-08-29 20:15:00,
2013-08-29 15:30:00,94.0,72.0,29.93,NNW,330,0.0,4.0,49,0.00,,,0.00,weatherlink.com 1.10,2013-08-29 20:30:00,
2013-08-29 15:45:00,94.3,74.0,29.93,NE,44,6.0,8.0,52,0.00,,,0.00,weatherlink.com 1.10,2013-08-29 20:45:00,
2013-08-29 16:00:00,95.7,72.0,29.93,WNW,299,3.0,3.0,46,0.00,,,0.00,weatherlink.com 1.10,2013-08-29 21:00:00,
2013-08-29 16:15:00,95.1,75.0,29.92,ESE,105,4.0,4.0,52,0.00,,,0.00,weatherlink.com 1.10,2013-08-29 21:15:00,
2013-08-29 16:30:00,98.0,75.0,29.92,WSW,247,1.0,4.0,48,0.00,,,0.00,weatherlink.com 1.10,2013-08-29 21:30:00,
2013-08-29 16:45:00,97.7,77.0,29.91,East,84,2.0,4.0,51,0.00,,,0.00,weatherlink.com 1.10,2013-08-29 21:45:00,
2013-08-29 17:00:00,98.0,77.0,29.91,ESE,117,1.0,3.0,51,0.00,,,0.00,weatherlink.com 1.10,2013-08-29 22:00:00,
2013-08-29 17:15:00,96.3,77.0,29.91,ENE,63,2.0,4.0,54,0.00,,,0.00,weatherlink.com 1.10,2013-08-29 22:15:00,
2013-08-29 17:30:00,94.0,77.0,29.91,South,188,0.0,4.0,58,0.00,,,0.00,weatherlink.com 1.10,2013-08-29 22:30:00,
2013-08-29 17:45:00,98.0,77.0,29.91,SSW,195,0.0,1.0,51,0.00,,,0.00,weatherlink.com 1.10,2013-08-29 22:45:00,
2013-08-29 18:00:00,96.5,77.0,29.91,ESE,103,0.0,1.0,53,0.00,,,0.00,weatherlink.com 1.10,2013-08-29 23:00:00,
2013-08-29 18:15:00,94.0,76.0,29.91,ESE,102,0.0,2.0,57,0.00,,,0.00,weatherlink.com 1.10,2013-08-29 23:15:00,
2013-08-29 18:30:00,95.8,78.0,29.90,ESE,103,0.0,1.0,56,0.00,,,0.00,weatherlink.com 1.10,2013-08-29 23:30:00,
2013-08-29 18:45:00,94.3,78.0,29.90,SSE,164,0.0,1.0,59,0.00,,,0.00,weatherlink.com 1.10,2013-08-29 23:45:00,
2013-08-29 19:00:00,93.3,77.0,29.90,SE,142,0.0,0.0,60,0.00,,,0.00,weatherlink.com 1.10,2013-08-30 00:00:00,
2013-08-29 19:15:00,91.1,77.0,29.90,SSE,148,0.0,1.0,63,0.00,,,0.00,weatherlink.com 1.10,2013-08-30 00:15:00,
2013-08-29 19:30:00,87.5,76.0,29.90,ESE,104,0.0,1.0,68,0.00,,,0.00,weatherlink.com 1.10,2013-08-30 00:30:00,
2013-08-29 19:45:00,85.9,76.0,29.91,SE,129,0.0,1.0,71,0.00,,,0.00,weatherlink.com 1.10,2013-08-30 00:45:00,
2013-08-29 20:15:00,84.2,76.0,29.91,East,79,1.0,1.0,75,0.00,,,0.00,weatherlink.com 1.10,2013-08-30 01:15:00,
2013-08-29 20:30:00,83.6,75.0,29.91,East,87,1.0,1.0,76,0.00,,,0.00,weatherlink.com 1.10,2013-08-30 01:30:00,
2013-08-29 20:45:00,83.2,75.0,29.92,ESE,108,0.0,1.0,77,0.00,,,0.00,weatherlink.com 1.10,2013-08-30 01:45:00,
2013-08-29 21:00:00,82.9,75.0,29.92,East,82,2.0,3.0,77,0.00,,,0.00,weatherlink.com 1.10,2013-08-30 02:00:00,
2013-08-29 21:15:00,82.7,75.0,29.93,ENE,62,4.0,4.0,78,0.00,,,0.00,weatherlink.com 1.10,2013-08-30 02:15:00,
2013-08-29 21:30:00,82.1,75.0,29.93,East,89,1.0,2.0,79,0.00,,,0.00,weatherlink.com 1.10,2013-08-30 02:30:00,
2013-08-29 21:45:00,81.3,75.0,29.92,East,79,0.0,1.0,81,0.00,,,0.00,weatherlink.com 1.10,2013-08-30 02:45:00,
2013-08-29 22:00:00,80.6,75.0,29.92,East,90,1.0,2.0,83,0.00,,,0.00,weatherlink.com 1.10,2013-08-30 03:00:00,
2013-08-29 22:15:00,80.3,76.0,29.92,East,81,1.0,3.0,85,0.00,,,0.00,weatherlink.com 1.10,2013-08-30 03:15:00,
2013-08-29 22:30:00,79.9,75.0,29.92,ENE,73,1.0,2.0,86,0.00,,,0.00,weatherlink.com 1.10,2013-08-30 03:30:00,
2013-08-29 22:46:00,79.4,76.0,29.91,SE,141,0.0,2.0,88,0.00,,,0.00,weatherlink.com 1.10,2013-08-30 03:46:00,
2013-08-29 23:01:00,79.0,76.0,29.92,East,92,1.0,3.0,89,0.00,,,0.00,weatherlink.com 1.10,2013-08-30 04:01:00,
2013-08-29 23:16:00,78.9,76.0,29.91,SSE,152,3.0,3.0,89,0.00,,,0.00,weatherlink.com 1.10,2013-08-30 04:16:00,
2013-08-29 23:31:00,79.1,76.0,29.92,West,260,1.0,4.0,89,0.00,,,0.00,weatherlink.com 1.10,2013-08-30 04:31:00,
2013-08-29 23:46:00,79.1,75.0,29.91,SW,232,2.0,5.0,88,0.00,,,0.00,weatherlink.com 1.10,2013-08-30 04:46:00,